sensor_id;sensor_type;location;lat;lon;timestamp;pressure;altitude;pressure_sealevel;temperature;humidity
11343;BME280;5726;42.160;24.746;2023-03-04T00:01:38;99706.56;;;8.08;100.00
11343;BME280;5726;42.160;24.746;2023-03-04T00:04:04;99705.25;;;8.35;100.00
11343;BME280;5726;42.160;24.746;2023-03-04T00:06:29;99700.97;;;8.44;100.00
11343;BME280;5726;42.160;24.746;2023-03-04T00:08:54;99707.09;;;8.55;100.00
11343;BME280;5726;42.160;24.746;2023-03-04T00:11:20;99706.31;;;8.34;100.00
11343;BME280;5726;42.160;24.746;2023-03-04T00:13:45;99704.16;;;8.36;100.00
11343;BME280;5726;42.160;24.746;2023-03-04T00:16:11;99701.47;;;8.36;100.00
11343;BME280;5726;42.160;24.746;2023-03-04T00:18:36;99699.06;;;8.50;100.00
11343;BME280;5726;42.160;24.746;2023-03-04T00:21:02;99687.06;;;8.42;100.00
11343;BME280;5726;42.160;24.746;2023-03-04T00:23:27;99691.59;;;8.47;100.00
11343;BME280;5726;42.160;24.746;2023-03-04T00:25:53;99699.06;;;8.55;100.00
11343;BME280;5726;42.160;24.746;2023-03-04T00:28:18;99699.88;;;8.30;100.00
11343;BME280;5726;42.160;24.746;2023-03-04T00:30:44;99695.63;;;8.24;100.00
11343;BME280;5726;42.160;24.746;2023-03-04T00:33:09;99710.84;;;8.24;100.00
11343;BME280;5726;42.160;24.746;2023-03-04T00:35:34;99700.97;;;8.34;100.00
11343;BME280;5726;42.160;24.746;2023-03-04T00:38:00;99699.84;;;8.55;100.00
11343;BME280;5726;42.160;24.746;2023-03-04T00:40:26;99698.78;;;8.61;100.00
11343;BME280;5726;42.160;24.746;2023-03-04T00:42:52;99692.94;;;8.49;100.00
11343;BME280;5726;42.160;24.746;2023-03-04T00:45:17;99686.53;;;8.30;100.00
11343;BME280;5726;42.160;24.746;2023-03-04T00:47:42;99687.88;;;8.33;100.00
11343;BME280;5726;42.160;24.746;2023-03-04T00:50:09;99685.72;;;8.35;100.00
11343;BME280;5726;42.160;24.746;2023-03-04T00:52:34;99685.75;;;8.25;100.00
11343;BME280;5726;42.160;24.746;2023-03-04T00:55:00;99692.97;;;8.19;100.00
11343;BME280;5726;42.160;24.746;2023-03-04T00:57:25;99691.09;;;8.15;100.00
11343;BME280;5726;42.160;24.746;2023-03-04T00:59:51;99685.22;;;8.18;100.00
11343;BME280;5726;42.160;24.746;2023-03-04T01:02:16;99687.63;;;8.19;100.00
11343;BME280;5726;42.160;24.746;2023-03-04T01:04:41;99690.81;;;8.21;100.00
11343;BME280;5726;42.160;24.746;2023-03-04T01:07:07;99691.09;;;8.20;100.00
11343;BME280;5726;42.160;24.746;2023-03-04T01:09:33;99687.09;;;8.12;100.00
11343;BME280;5726;42.160;24.746;2023-03-04T01:11:58;99686.03;;;8.23;100.00
11343;BME280;5726;42.160;24.746;2023-03-04T01:14:24;99687.09;;;8.32;100.00
11343;BME280;5726;42.160;24.746;2023-03-04T01:16:49;99686.81;;;8.29;100.00
11343;BME280;5726;42.160;24.746;2023-03-04T01:19:15;99677.47;;;8.26;100.00
11343;BME280;5726;42.160;24.746;2023-03-04T01:21:40;99675.59;;;8.32;100.00
11343;BME280;5726;42.160;24.746;2023-03-04T01:24:06;99676.94;;;8.29;100.00
11343;BME280;5726;42.160;24.746;2023-03-04T01:26:31;99676.91;;;8.44;100.00
11343;BME280;5726;42.160;24.746;2023-03-04T01:28:57;99670.50;;;8.30;100.00
11343;BME280;5726;42.160;24.746;2023-03-04T01:31:22;99668.41;;;8.17;100.00
11343;BME280;5726;42.160;24.746;2023-03-04T01:33:48;99669.44;;;8.31;100.00
11343;BME280;5726;42.160;24.746;2023-03-04T01:36:13;99666.78;;;8.26;100.00
11343;BME280;5726;42.160;24.746;2023-03-04T01:38:38;99668.84;;;8.54;100.00
11343;BME280;5726;42.160;24.746;2023-03-04T01:41:04;99668.38;;;8.37;100.00
11343;BME280;5726;42.160;24.746;2023-03-04T01:43:32;99665.19;;;8.06;100.00
11343;BME280;5726;42.160;24.746;2023-03-04T01:46:00;99665.72;;;7.93;100.00
11343;BME280;5726;42.160;24.746;2023-03-04T01:48:29;99659.06;;;7.95;100.00
11343;BME280;5726;42.160;24.746;2023-03-04T01:50:58;99652.38;;;7.78;100.00
11343;BME280;5726;42.160;24.746;2023-03-04T01:53:27;99659.00;;;7.36;100.00
11343;BME280;5726;42.160;24.746;2023-03-04T01:55:55;99658.75;;;7.37;100.00
11343;BME280;5726;42.160;24.746;2023-03-04T01:58:29;99652.34;;;7.53;100.00
11343;BME280;5726;42.160;24.746;2023-03-04T02:00:56;99655.31;;;7.57;100.00
11343;BME280;5726;42.160;24.746;2023-03-04T02:03:22;99655.06;;;7.73;100.00
11343;BME280;5726;42.160;24.746;2023-03-04T02:05:49;99658.50;;;7.63;100.00
11343;BME280;5726;42.160;24.746;2023-03-04T02:08:17;99667.03;;;8.00;100.00
11343;BME280;5726;42.160;24.746;2023-03-04T02:10:44;99665.19;;;7.76;100.00
11343;BME280;5726;42.160;24.746;2023-03-04T02:13:10;99651.84;;;7.81;100.00
11343;BME280;5726;42.160;24.746;2023-03-04T02:15:36;99656.13;;;7.97;100.00
11343;BME280;5726;42.160;24.746;2023-03-04T02:18:07;99655.28;;;8.06;100.00
11343;BME280;5726;42.160;24.746;2023-03-04T02:23:24;99643.56;;;8.22;100.00
11343;BME280;5726;42.160;24.746;2023-03-04T02:28:32;99650.78;;;8.26;100.00
11343;BME280;5726;42.160;24.746;2023-03-04T02:30:58;99651.56;;;8.37;100.00
11343;BME280;5726;42.160;24.746;2023-03-04T02:33:23;99646.47;;;8.01;100.00
11343;BME280;5726;42.160;24.746;2023-03-04T02:35:49;99645.69;;;8.10;100.00
11343;BME280;5726;42.160;24.746;2023-03-04T02:38:14;99649.69;;;7.58;100.00
11343;BME280;5726;42.160;24.746;2023-03-04T02:40:42;99634.22;;;7.60;100.00
11343;BME280;5726;42.160;24.746;2023-03-04T02:43:10;99638.97;;;7.23;100.00
11343;BME280;5726;42.160;24.746;2023-03-04T02:48:05;99631.91;;;6.83;100.00
11343;BME280;5726;42.160;24.746;2023-03-04T02:50:34;99633.47;;;6.74;100.00
11343;BME280;5726;42.160;24.746;2023-03-04T02:55:49;99620.34;;;6.53;100.00
11343;BME280;5726;42.160;24.746;2023-03-04T02:58:16;99622.28;;;6.72;100.00
11343;BME280;5726;42.160;24.746;2023-03-04T03:00:42;99632.50;;;6.90;100.00
11343;BME280;5726;42.160;24.746;2023-03-04T03:03:07;99639.78;;;7.34;100.00
11343;BME280;5726;42.160;24.746;2023-03-04T03:05:33;99633.88;;;7.22;100.00
11343;BME280;5726;42.160;24.746;2023-03-04T03:07:59;99641.63;;;7.18;100.00
11343;BME280;5726;42.160;24.746;2023-03-04T03:10:25;99639.19;;;7.02;100.00
11343;BME280;5726;42.160;24.746;2023-03-04T03:12:51;99645.88;;;7.05;100.00
11343;BME280;5726;42.160;24.746;2023-03-04T03:15:17;99649.59;;;7.09;100.00
11343;BME280;5726;42.160;24.746;2023-03-04T03:17:43;99657.66;;;7.33;100.00
11343;BME280;5726;42.160;24.746;2023-03-04T03:20:10;99647.50;;;7.25;100.00
11343;BME280;5726;42.160;24.746;2023-03-04T03:22:36;99653.38;;;7.32;100.00
11343;BME280;5726;42.160;24.746;2023-03-04T03:25:03;99653.38;;;7.22;100.00
11343;BME280;5726;42.160;24.746;2023-03-04T03:27:28;99659.78;;;7.31;100.00
11343;BME280;5726;42.160;24.746;2023-03-04T03:29:54;99665.16;;;7.46;100.00
11343;BME280;5726;42.160;24.746;2023-03-04T03:32:20;99662.50;;;7.61;100.00
11343;BME280;5726;42.160;24.746;2023-03-04T03:34:45;99665.13;;;7.36;100.00
11343;BME280;5726;42.160;24.746;2023-03-04T03:37:10;99668.06;;;7.35;100.00
11343;BME280;5726;42.160;24.746;2023-03-04T03:39:36;99669.97;;;7.49;100.00
11343;BME280;5726;42.160;24.746;2023-03-04T03:42:01;99660.34;;;7.53;100.00
11343;BME280;5726;42.160;24.746;2023-03-04T03:44:27;99659.53;;;7.33;100.00
11343;BME280;5726;42.160;24.746;2023-03-04T03:46:52;99658.72;;;7.27;100.00
11343;BME280;5726;42.160;24.746;2023-03-04T03:49:18;99657.94;;;7.52;100.00
11343;BME280;5726;42.160;24.746;2023-03-04T03:51:43;99661.41;;;7.37;100.00
11343;BME280;5726;42.160;24.746;2023-03-04T03:54:09;99654.91;;;7.09;100.00
11343;BME280;5726;42.160;24.746;2023-03-04T03:56:34;99652.25;;;6.99;100.00
11343;BME280;5726;42.160;24.746;2023-03-04T03:58:59;99652.81;;;7.11;100.00
11343;BME280;5726;42.160;24.746;2023-03-04T04:01:25;99659.78;;;7.36;100.00
11343;BME280;5726;42.160;24.746;2023-03-04T04:03:51;99644.50;;;7.07;100.00
11343;BME280;5726;42.160;24.746;2023-03-04T04:06:16;99653.63;;;6.55;100.00
11343;BME280;5726;42.160;24.746;2023-03-04T04:08:42;99651.63;;;6.82;100.00
11343;BME280;5726;42.160;24.746;2023-03-04T04:11:11;99647.34;;;6.76;100.00
11343;BME280;5726;42.160;24.746;2023-03-04T04:13:38;99646.91;;;6.99;100.00
11343;BME280;5726;42.160;24.746;2023-03-04T04:16:04;99649.88;;;7.22;100.00
11343;BME280;5726;42.160;24.746;2023-03-04T04:18:30;99650.97;;;7.21;100.00
11343;BME280;5726;42.160;24.746;2023-03-04T04:20:55;99649.41;;;7.30;100.00
11343;BME280;5726;42.160;24.746;2023-03-04T04:23:21;99660.63;;;7.42;100.00
11343;BME280;5726;42.160;24.746;2023-03-04T04:25:46;99657.38;;;7.35;100.00
11343;BME280;5726;42.160;24.746;2023-03-04T04:28:12;99660.88;;;7.40;100.00
11343;BME280;5726;42.160;24.746;2023-03-04T04:30:37;99665.97;;;7.57;100.00
11343;BME280;5726;42.160;24.746;2023-03-04T04:33:03;99663.00;;;7.53;100.00
11343;BME280;5726;42.160;24.746;2023-03-04T04:35:33;99666.47;;;7.44;100.00
11343;BME280;5726;42.160;24.746;2023-03-04T04:37:59;99667.56;;;7.48;100.00
11343;BME280;5726;42.160;24.746;2023-03-04T04:40:25;99667.28;;;7.49;100.00
11343;BME280;5726;42.160;24.746;2023-03-04T04:42:50;99665.16;;;7.66;100.00
11343;BME280;5726;42.160;24.746;2023-03-04T04:45:16;99672.09;;;7.77;100.00
11343;BME280;5726;42.160;24.746;2023-03-04T04:47:41;99668.38;;;7.68;100.00
11343;BME280;5726;42.160;24.746;2023-03-04T04:50:07;99670.44;;;7.21;100.00
11343;BME280;5726;42.160;24.746;2023-03-04T04:52:33;99673.88;;;7.22;100.00
11343;BME280;5726;42.160;24.746;2023-03-04T04:54:58;99681.81;;;6.97;100.00
11343;BME280;5726;42.160;24.746;2023-03-04T04:57:23;99690.50;;;6.73;100.00
11343;BME280;5726;42.160;24.746;2023-03-04T04:59:49;99680.31;;;6.60;100.00
11343;BME280;5726;42.160;24.746;2023-03-04T05:02:15;99690.19;;;6.18;100.00
11343;BME280;5726;42.160;24.746;2023-03-04T05:04:40;99682.53;;;6.32;100.00
11343;BME280;5726;42.160;24.746;2023-03-04T05:07:05;99685.56;;;6.50;100.00
11343;BME280;5726;42.160;24.746;2023-03-04T05:09:31;99685.84;;;6.54;100.00
11343;BME280;5726;42.160;24.746;2023-03-04T05:11:56;99688.06;;;6.62;100.00
11343;BME280;5726;42.160;24.746;2023-03-04T05:14:22;99691.75;;;6.61;100.00
11343;BME280;5726;42.160;24.746;2023-03-04T05:16:47;99695.81;;;6.68;100.00
11343;BME280;5726;42.160;24.746;2023-03-04T05:19:13;99691.69;;;6.46;100.00
11343;BME280;5726;42.160;24.746;2023-03-04T05:21:38;99704.03;;;6.20;100.00
11343;BME280;5726;42.160;24.746;2023-03-04T05:24:04;99704.41;;;6.03;100.00
11343;BME280;5726;42.160;24.746;2023-03-04T05:26:29;99703.53;;;5.92;100.00
11343;BME280;5726;42.160;24.746;2023-03-04T05:28:55;99698.00;;;5.99;100.00
11343;BME280;5726;42.160;24.746;2023-03-04T05:31:20;99695.28;;;5.94;100.00
11343;BME280;5726;42.160;24.746;2023-03-04T05:33:46;99709.16;;;5.69;100.00
11343;BME280;5726;42.160;24.746;2023-03-04T05:36:11;99705.13;;;5.67;100.00
11343;BME280;5726;42.160;24.746;2023-03-04T05:38:37;99697.16;;;6.70;100.00
11343;BME280;5726;42.160;24.746;2023-03-04T05:41:05;99696.88;;;7.38;100.00
11343;BME280;5726;42.160;24.746;2023-03-04T05:43:32;99685.19;;;7.59;100.00
11343;BME280;5726;42.160;24.746;2023-03-04T05:46:00;99677.22;;;8.13;100.00
11343;BME280;5726;42.160;24.746;2023-03-04T05:48:26;99688.38;;;8.50;100.00
11343;BME280;5726;42.160;24.746;2023-03-04T05:50:58;99698.16;;;8.89;100.00
11343;BME280;5726;42.160;24.746;2023-03-04T05:53:24;99707.25;;;8.88;100.00
11343;BME280;5726;42.160;24.746;2023-03-04T05:55:49;99710.56;;;8.30;100.00
11343;BME280;5726;42.160;24.746;2023-03-04T05:58:15;99702.81;;;7.99;100.00
11343;BME280;5726;42.160;24.746;2023-03-04T06:00:41;99710.53;;;7.61;100.00
11343;BME280;5726;42.160;24.746;2023-03-04T06:03:13;99713.97;;;7.52;100.00
11343;BME280;5726;42.160;24.746;2023-03-04T06:05:39;99701.97;;;7.49;100.00
11343;BME280;5726;42.160;24.746;2023-03-04T06:08:04;99712.66;;;6.83;100.00
11343;BME280;5726;42.160;24.746;2023-03-04T06:10:30;99710.59;;;6.49;100.00
11343;BME280;5726;42.160;24.746;2023-03-04T06:12:55;99717.31;;;6.57;100.00
11343;BME280;5726;42.160;24.746;2023-03-04T06:15:20;99709.13;;;6.68;100.00
11343;BME280;5726;42.160;24.746;2023-03-04T06:17:46;99724.59;;;6.71;100.00
11343;BME280;5726;42.160;24.746;2023-03-04T06:20:11;99731.19;;;6.59;100.00
11343;BME280;5726;42.160;24.746;2023-03-04T06:22:37;99712.28;;;6.60;100.00
11343;BME280;5726;42.160;24.746;2023-03-04T06:25:03;99712.31;;;6.70;100.00
11343;BME280;5726;42.160;24.746;2023-03-04T06:27:28;99728.44;;;6.90;100.00
11343;BME280;5726;42.160;24.746;2023-03-04T06:29:53;99724.47;;;6.51;100.00
11343;BME280;5726;42.160;24.746;2023-03-04T06:32:19;99724.69;;;6.45;100.00
11343;BME280;5726;42.160;24.746;2023-03-04T06:34:44;99727.94;;;6.57;100.00
11343;BME280;5726;42.160;24.746;2023-03-04T06:37:10;99733.06;;;6.63;100.00
11343;BME280;5726;42.160;24.746;2023-03-04T06:39:35;99733.94;;;6.78;100.00
11343;BME280;5726;42.160;24.746;2023-03-04T06:42:01;99738.50;;;6.83;100.00
11343;BME280;5726;42.160;24.746;2023-03-04T06:44:26;99741.75;;;6.90;100.00
11343;BME280;5726;42.160;24.746;2023-03-04T06:46:52;99749.22;;;6.93;100.00
11343;BME280;5726;42.160;24.746;2023-03-04T06:49:17;99737.56;;;7.09;100.00
11343;BME280;5726;42.160;24.746;2023-03-04T06:51:43;99750.41;;;7.16;100.00
11343;BME280;5726;42.160;24.746;2023-03-04T06:54:08;99745.97;;;7.52;100.00
11343;BME280;5726;42.160;24.746;2023-03-04T06:56:34;99742.00;;;7.54;100.00
11343;BME280;5726;42.160;24.746;2023-03-04T06:58:59;99752.16;;;7.67;100.00
11343;BME280;5726;42.160;24.746;2023-03-04T07:01:27;99755.13;;;7.85;100.00
11343;BME280;5726;42.160;24.746;2023-03-04T07:03:53;99752.19;;;7.87;100.00
11343;BME280;5726;42.160;24.746;2023-03-04T07:06:23;99753.28;;;7.96;100.00
11343;BME280;5726;42.160;24.746;2023-03-04T07:08:49;99743.41;;;8.11;100.00
11343;BME280;5726;42.160;24.746;2023-03-04T07:11:15;99740.19;;;8.09;100.00
11343;BME280;5726;42.160;24.746;2023-03-04T07:13:40;99754.56;;;7.78;100.00
11343;BME280;5726;42.160;24.746;2023-03-04T07:16:08;99744.69;;;7.74;100.00
11343;BME280;5726;42.160;24.746;2023-03-04T07:18:35;99749.50;;;7.72;100.00
11343;BME280;5726;42.160;24.746;2023-03-04T07:21:00;99760.22;;;8.07;100.00
11343;BME280;5726;42.160;24.746;2023-03-04T07:23:26;99745.84;;;8.32;100.00
11343;BME280;5726;42.160;24.746;2023-03-04T07:25:51;99742.66;;;8.35;100.00
11343;BME280;5726;42.160;24.746;2023-03-04T07:28:17;99749.56;;;8.61;100.00
11343;BME280;5726;42.160;24.746;2023-03-04T07:30:43;99741.00;;;8.59;100.00
11343;BME280;5726;42.160;24.746;2023-03-04T07:33:09;99741.53;;;8.51;100.00
11343;BME280;5726;42.160;24.746;2023-03-04T07:35:34;99744.75;;;8.58;100.00
11343;BME280;5726;42.160;24.746;2023-03-04T07:38:00;99744.19;;;8.71;100.00
11343;BME280;5726;42.160;24.746;2023-03-04T07:40:25;99738.78;;;8.91;100.00
11343;BME280;5726;42.160;24.746;2023-03-04T07:42:52;99746.56;;;8.87;100.00
11343;BME280;5726;42.160;24.746;2023-03-04T07:45:18;99732.34;;;8.97;100.00
11343;BME280;5726;42.160;24.746;2023-03-04T07:47:44;99730.16;;;9.18;100.00
11343;BME280;5726;42.160;24.746;2023-03-04T07:50:10;99722.00;;;8.70;100.00
11343;BME280;5726;42.160;24.746;2023-03-04T07:52:40;99722.34;;;8.44;100.00
11343;BME280;5726;42.160;24.746;2023-03-04T07:55:07;99714.84;;;8.56;100.00
11343;BME280;5726;42.160;24.746;2023-03-04T07:57:33;99721.50;;;8.63;100.00
11343;BME280;5726;42.160;24.746;2023-03-04T07:59:58;99716.19;;;8.49;100.00
11343;BME280;5726;42.160;24.746;2023-03-04T08:02:24;99721.81;;;8.17;100.00
11343;BME280;5726;42.160;24.746;2023-03-04T08:04:49;99723.94;;;8.15;100.00
11343;BME280;5726;42.160;24.746;2023-03-04T08:07:14;99711.34;;;8.60;100.00
11343;BME280;5726;42.160;24.746;2023-03-04T08:09:40;99712.69;;;8.58;100.00
11343;BME280;5726;42.160;24.746;2023-03-04T08:12:05;99719.63;;;8.54;100.00
11343;BME280;5726;42.160;24.746;2023-03-04T08:14:31;99719.84;;;8.77;100.00
11343;BME280;5726;42.160;24.746;2023-03-04T08:16:58;99714.97;;;8.99;100.00
11343;BME280;5726;42.160;24.746;2023-03-04T08:19:23;99720.09;;;8.81;100.00
11343;BME280;5726;42.160;24.746;2023-03-04T08:21:48;99722.66;;;9.10;100.00
11343;BME280;5726;42.160;24.746;2023-03-04T08:24:14;99720.06;;;8.96;100.00
11343;BME280;5726;42.160;24.746;2023-03-04T08:26:45;99727.88;;;8.77;100.00
11343;BME280;5726;42.160;24.746;2023-03-04T08:29:17;99740.19;;;8.78;100.00
11343;BME280;5726;42.160;24.746;2023-03-04T08:31:43;99738.69;;;9.20;100.00
11343;BME280;5726;42.160;24.746;2023-03-04T08:34:11;99737.06;;;9.19;100.00
11343;BME280;5726;42.160;24.746;2023-03-04T08:36:39;99737.63;;;9.21;100.00
11343;BME280;5726;42.160;24.746;2023-03-04T08:39:05;99734.47;;;9.09;100.00
11343;BME280;5726;42.160;24.746;2023-03-04T08:41:31;99727.94;;;9.30;100.00
11343;BME280;5726;42.160;24.746;2023-03-04T08:43:58;99733.94;;;9.60;100.00
11343;BME280;5726;42.160;24.746;2023-03-04T08:46:23;99737.47;;;9.51;100.00
11343;BME280;5726;42.160;24.746;2023-03-04T08:48:49;99737.41;;;9.61;100.00
11343;BME280;5726;42.160;24.746;2023-03-04T08:51:16;99726.84;;;9.36;100.00
11343;BME280;5726;42.160;24.746;2023-03-04T08:53:42;99736.81;;;9.26;100.00
11343;BME280;5726;42.160;24.746;2023-03-04T08:56:12;99732.69;;;9.43;100.00
11343;BME280;5726;42.160;24.746;2023-03-04T08:58:38;99732.69;;;9.43;100.00
11343;BME280;5726;42.160;24.746;2023-03-04T09:01:07;99724.69;;;9.38;100.00
11343;BME280;5726;42.160;24.746;2023-03-04T09:03:33;99719.78;;;9.55;100.00
11343;BME280;5726;42.160;24.746;2023-03-04T09:06:00;99720.00;;;9.63;100.00
11343;BME280;5726;42.160;24.746;2023-03-04T09:08:26;99712.66;;;9.84;100.00
11343;BME280;5726;42.160;24.746;2023-03-04T09:10:53;99703.41;;;10.04;100.00
11343;BME280;5726;42.160;24.746;2023-03-04T09:13:19;99704.59;;;10.22;100.00
11343;BME280;5726;42.160;24.746;2023-03-04T09:15:46;99700.41;;;10.11;100.00
11343;BME280;5726;42.160;24.746;2023-03-04T09:18:12;99700.84;;;10.23;100.00
11343;BME280;5726;42.160;24.746;2023-03-04T09:20:38;99692.16;;;10.07;100.00
11343;BME280;5726;42.160;24.746;2023-03-04T09:23:04;99692.94;;;10.36;100.00
11343;BME280;5726;42.160;24.746;2023-03-04T09:25:29;99687.88;;;10.58;100.00
11343;BME280;5726;42.160;24.746;2023-03-04T09:27:55;99691.41;;;10.25;100.00
11343;BME280;5726;42.160;24.746;2023-03-04T09:30:20;99692.03;;;10.17;100.00
11343;BME280;5726;42.160;24.746;2023-03-04T09:32:46;99686.53;;;10.32;100.00
11343;BME280;5726;42.160;24.746;2023-03-04T09:35:11;99696.41;;;10.37;100.00
11343;BME280;5726;42.160;24.746;2023-03-04T09:37:37;99691.25;;;10.68;100.00
11343;BME280;5726;42.160;24.746;2023-03-04T09:40:03;99680.84;;;10.39;100.00
11343;BME280;5726;42.160;24.746;2023-03-04T09:42:35;99688.44;;;10.32;100.00
11343;BME280;5726;42.160;24.746;2023-03-04T09:45:04;99684.78;;;10.46;100.00
11343;BME280;5726;42.160;24.746;2023-03-04T09:47:33;99688.13;;;10.61;100.00
11343;BME280;5726;42.160;24.746;2023-03-04T09:50:02;99686.19;;;10.67;100.00
11343;BME280;5726;42.160;24.746;2023-03-04T09:52:57;99681.94;;;10.61;100.00
11343;BME280;5726;42.160;24.746;2023-03-04T09:55:33;99682.53;;;11.04;100.00
11343;BME280;5726;42.160;24.746;2023-03-04T09:58:27;99680.16;;;10.80;100.00
11343;BME280;5726;42.160;24.746;2023-03-04T10:01:02;99672.50;;;10.92;100.00
11343;BME280;5726;42.160;24.746;2023-03-04T10:03:42;99670.38;;;11.30;100.00
11343;BME280;5726;42.160;24.746;2023-03-04T10:06:15;99669.44;;;11.21;100.00
11343;BME280;5726;42.160;24.746;2023-03-04T10:11:47;99665.19;;;11.57;100.00
11343;BME280;5726;42.160;24.746;2023-03-04T10:17:11;99659.97;;;11.47;100.00
11343;BME280;5726;42.160;24.746;2023-03-04T10:19:52;99660.50;;;11.44;100.00
11343;BME280;5726;42.160;24.746;2023-03-04T10:22:34;99658.94;;;11.43;100.00
11343;BME280;5726;42.160;24.746;2023-03-04T10:27:41;99647.25;;;11.34;100.00
11343;BME280;5726;42.160;24.746;2023-03-04T10:32:56;99644.19;;;11.22;100.00
11343;BME280;5726;42.160;24.746;2023-03-04T10:35:25;99643.50;;;11.53;100.00
11343;BME280;5726;42.160;24.746;2023-03-04T10:37:52;99633.25;;;11.37;100.00
11343;BME280;5726;42.160;24.746;2023-03-04T10:40:23;99633.16;;;11.42;100.00
11343;BME280;5726;42.160;24.746;2023-03-04T10:42:49;99632.16;;;11.20;100.00
11343;BME280;5726;42.160;24.746;2023-03-04T10:45:25;99625.06;;;11.47;100.00
11343;BME280;5726;42.160;24.746;2023-03-04T10:47:55;99619.53;;;11.20;100.00
11343;BME280;5726;42.160;24.746;2023-03-04T10:50:23;99618.44;;;11.03;100.00
11343;BME280;5726;42.160;24.746;2023-03-04T10:52:49;99610.25;;;10.71;100.00
11343;BME280;5726;42.160;24.746;2023-03-04T10:55:23;99617.19;;;10.96;100.00
11343;BME280;5726;42.160;24.746;2023-03-04T10:58:03;99610.59;;;10.88;100.00
11343;BME280;5726;42.160;24.746;2023-03-04T11:00:33;99606.03;;;10.65;100.00
11343;BME280;5726;42.160;24.746;2023-03-04T11:06:17;99589.78;;;10.98;100.00
11343;BME280;5726;42.160;24.746;2023-03-04T11:08:44;99590.75;;;11.07;100.00
11343;BME280;5726;42.160;24.746;2023-03-04T11:11:22;99576.00;;;11.05;100.00
11343;BME280;5726;42.160;24.746;2023-03-04T11:13:58;99572.81;;;11.03;100.00
11343;BME280;5726;42.160;24.746;2023-03-04T11:16:30;99570.34;;;11.06;100.00
11343;BME280;5726;42.160;24.746;2023-03-04T11:19:01;99566.78;;;11.66;100.00
11343;BME280;5726;42.160;24.746;2023-03-04T11:21:30;99558.22;;;11.64;100.00
11343;BME280;5726;42.160;24.746;2023-03-04T11:24:12;99543.34;;;11.53;100.00
11343;BME280;5726;42.160;24.746;2023-03-04T11:26:42;99542.19;;;11.59;100.00
11343;BME280;5726;42.160;24.746;2023-03-04T11:31:54;99547.47;;;11.64;100.00
11343;BME280;5726;42.160;24.746;2023-03-04T11:34:30;99546.34;;;11.83;100.00
11343;BME280;5726;42.160;24.746;2023-03-04T11:42:51;99538.00;;;11.35;100.00
11343;BME280;5726;42.160;24.746;2023-03-04T11:54:16;99525.13;;;11.50;100.00
11343;BME280;5726;42.160;24.746;2023-03-04T11:56:50;99521.91;;;11.66;100.00
11343;BME280;5726;42.160;24.746;2023-03-04T12:35:41;99494.25;;;13.21;100.00
11343;BME280;5726;42.160;24.746;2023-03-04T12:44:15;99481.84;;;12.50;100.00
11343;BME280;5726;42.160;24.746;2023-03-04T12:52:28;99476.81;;;12.70;100.00
11343;BME280;5726;42.160;24.746;2023-03-04T12:55:08;99462.44;;;12.88;100.00
11343;BME280;5726;42.160;24.746;2023-03-04T12:57:35;99464.13;;;12.36;100.00
11343;BME280;5726;42.160;24.746;2023-03-04T13:00:21;99466.66;;;12.32;100.00
11343;BME280;5726;42.160;24.746;2023-03-04T13:08:55;99456.97;;;13.37;100.00
11343;BME280;5726;42.160;24.746;2023-03-04T13:16:44;99436.44;;;13.49;100.00
11343;BME280;5726;42.160;24.746;2023-03-04T13:19:41;99438.00;;;13.20;100.00
11343;BME280;5726;42.160;24.746;2023-03-04T13:22:27;99437.69;;;12.99;100.00
11343;BME280;5726;42.160;24.746;2023-03-04T13:24:53;99435.56;;;13.10;100.00
11343;BME280;5726;42.160;24.746;2023-03-04T13:27:47;99435.41;;;13.15;100.00
11343;BME280;5726;42.160;24.746;2023-03-04T13:43:45;99415.03;;;13.22;100.00
11343;BME280;5726;42.160;24.746;2023-03-04T13:56:36;99409.25;;;13.29;100.00
11343;BME280;5726;42.160;24.746;2023-03-04T14:06:44;99388.19;;;13.09;100.00
11343;BME280;5726;42.160;24.746;2023-03-04T14:09:20;99388.19;;;13.31;100.00
11343;BME280;5726;42.160;24.746;2023-03-04T14:11:47;99378.78;;;12.98;100.00
11343;BME280;5726;42.160;24.746;2023-03-04T14:14:18;99376.56;;;12.78;100.00
11343;BME280;5726;42.160;24.746;2023-03-04T14:17:05;99384.53;;;12.83;100.00
11343;BME280;5726;42.160;24.746;2023-03-04T14:19:35;99385.72;;;12.77;100.00
11343;BME280;5726;42.160;24.746;2023-03-04T14:22:23;99380.13;;;13.09;100.00
11343;BME280;5726;42.160;24.746;2023-03-04T14:25:03;99383.22;;;12.81;100.00
11343;BME280;5726;42.160;24.746;2023-03-04T14:27:32;99380.09;;;13.00;100.00
11343;BME280;5726;42.160;24.746;2023-03-04T14:30:05;99373.69;;;12.75;100.00
11343;BME280;5726;42.160;24.746;2023-03-04T14:32:31;99366.81;;;12.69;100.00
11343;BME280;5726;42.160;24.746;2023-03-04T14:35:00;99365.94;;;12.95;100.00
11343;BME280;5726;42.160;24.746;2023-03-04T14:37:55;99354.63;;;12.85;100.00
11343;BME280;5726;42.160;24.746;2023-03-04T14:40:41;99362.97;;;12.61;100.00
11343;BME280;5726;42.160;24.746;2023-03-04T14:43:30;99356.69;;;12.44;100.00
11343;BME280;5726;42.160;24.746;2023-03-04T14:45:57;99363.47;;;12.63;100.00
11343;BME280;5726;42.160;24.746;2023-03-04T14:48:27;99351.69;;;12.73;100.00
11343;BME280;5726;42.160;24.746;2023-03-04T14:50:55;99354.75;;;12.80;100.00
11343;BME280;5726;42.160;24.746;2023-03-04T14:53:24;99345.19;;;12.87;100.00
11343;BME280;5726;42.160;24.746;2023-03-04T14:58:27;99341.88;;;12.90;100.00
11343;BME280;5726;42.160;24.746;2023-03-04T15:01:12;99346.88;;;13.05;100.00
11343;BME280;5726;42.160;24.746;2023-03-04T15:03:39;99341.59;;;13.00;100.00
11343;BME280;5726;42.160;24.746;2023-03-04T15:06:19;99337.59;;;13.19;100.00
11343;BME280;5726;42.160;24.746;2023-03-04T15:08:52;99335.06;;;12.92;100.00
11343;BME280;5726;42.160;24.746;2023-03-04T15:14:42;99321.88;;;12.83;100.00
11343;BME280;5726;42.160;24.746;2023-03-04T15:17:36;99321.34;;;12.81;100.00
11343;BME280;5726;42.160;24.746;2023-03-04T15:20:17;99323.94;;;12.86;100.00
11343;BME280;5726;42.160;24.746;2023-03-04T15:25:11;99314.88;;;13.03;100.00